sensor_id;sensor_type;location;lat;lon;timestamp;P1;durP1;ratioP1;P2;durP2;ratioP2
56114;SDS011;41988;53.020;6.576;2023-04-03T00:00:32;4.53;;;1.20;;
56114;SDS011;41988;53.020;6.576;2023-04-03T00:03:17;2.47;;;1.10;;
56114;SDS011;41988;53.020;6.576;2023-04-03T00:06:03;2.83;;;0.90;;
56114;SDS011;41988;53.020;6.576;2023-04-03T00:08:50;3.03;;;1.20;;
56114;SDS011;41988;53.020;6.576;2023-04-03T00:11:35;5.07;;;1.10;;
56114;SDS011;41988;53.020;6.576;2023-04-03T00:14:20;4.90;;;1.40;;
56114;SDS011;41988;53.020;6.576;2023-04-03T00:17:04;2.03;;;1.00;;
56114;SDS011;41988;53.020;6.576;2023-04-03T00:19:49;4.03;;;1.20;;
56114;SDS011;41988;53.020;6.576;2023-04-03T00:22:33;3.83;;;1.40;;
56114;SDS011;41988;53.020;6.576;2023-04-03T00:25:18;6.37;;;1.77;;
56114;SDS011;41988;53.020;6.576;2023-04-03T00:28:03;3.83;;;0.90;;
56114;SDS011;41988;53.020;6.576;2023-04-03T00:30:48;3.53;;;1.13;;
56114;SDS011;41988;53.020;6.576;2023-04-03T00:33:33;1.90;;;1.13;;
56114;SDS011;41988;53.020;6.576;2023-04-03T00:36:18;2.40;;;1.20;;
56114;SDS011;41988;53.020;6.576;2023-04-03T00:39:02;5.03;;;1.20;;
56114;SDS011;41988;53.020;6.576;2023-04-03T00:41:47;2.63;;;1.10;;
56114;SDS011;41988;53.020;6.576;2023-04-03T00:47:19;2.90;;;1.00;;
56114;SDS011;41988;53.020;6.576;2023-04-03T00:50:04;3.53;;;1.10;;
56114;SDS011;41988;53.020;6.576;2023-04-03T00:52:49;2.77;;;1.13;;
56114;SDS011;41988;53.020;6.576;2023-04-03T00:55:34;2.00;;;1.20;;
56114;SDS011;41988;53.020;6.576;2023-04-03T00:58:20;2.70;;;1.43;;
56114;SDS011;41988;53.020;6.576;2023-04-03T01:01:06;3.53;;;1.30;;
56114;SDS011;41988;53.020;6.576;2023-04-03T01:03:52;4.87;;;1.57;;
56114;SDS011;41988;53.020;6.576;2023-04-03T01:06:36;3.47;;;1.37;;
56114;SDS011;41988;53.020;6.576;2023-04-03T01:09:21;3.37;;;1.57;;
56114;SDS011;41988;53.020;6.576;2023-04-03T01:15:27;3.07;;;1.43;;
56114;SDS011;41988;53.020;6.576;2023-04-03T01:18:18;3.53;;;1.60;;
56114;SDS011;41988;53.020;6.576;2023-04-03T01:24:07;4.20;;;1.53;;
56114;SDS011;41988;53.020;6.576;2023-04-03T01:26:56;5.97;;;1.73;;
56114;SDS011;41988;53.020;6.576;2023-04-03T01:29:40;5.20;;;1.53;;
56114;SDS011;41988;53.020;6.576;2023-04-03T01:32:27;3.23;;;1.23;;
56114;SDS011;41988;53.020;6.576;2023-04-03T01:35:11;3.10;;;1.40;;
56114;SDS011;41988;53.020;6.576;2023-04-03T01:37:56;3.97;;;1.67;;
56114;SDS011;41988;53.020;6.576;2023-04-03T01:40:41;2.87;;;1.20;;
56114;SDS011;41988;53.020;6.576;2023-04-03T01:43:25;3.77;;;1.60;;
56114;SDS011;41988;53.020;6.576;2023-04-03T01:46:10;3.43;;;1.70;;
56114;SDS011;41988;53.020;6.576;2023-04-03T01:48:55;8.80;;;2.37;;
56114;SDS011;41988;53.020;6.576;2023-04-03T01:51:40;3.83;;;1.70;;
56114;SDS011;41988;53.020;6.576;2023-04-03T01:54:24;3.43;;;1.33;;
56114;SDS011;41988;53.020;6.576;2023-04-03T01:57:09;3.27;;;1.30;;
56114;SDS011;41988;53.020;6.576;2023-04-03T01:59:54;4.00;;;1.40;;
56114;SDS011;41988;53.020;6.576;2023-04-03T02:02:38;4.70;;;1.60;;
56114;SDS011;41988;53.020;6.576;2023-04-03T02:05:23;4.73;;;1.40;;
56114;SDS011;41988;53.020;6.576;2023-04-03T02:08:08;4.50;;;1.43;;
56114;SDS011;41988;53.020;6.576;2023-04-03T02:10:52;4.70;;;1.60;;
56114;SDS011;41988;53.020;6.576;2023-04-03T02:13:37;3.90;;;1.47;;
56114;SDS011;41988;53.020;6.576;2023-04-03T02:16:21;2.50;;;1.27;;
56114;SDS011;41988;53.020;6.576;2023-04-03T02:19:06;3.40;;;1.50;;
56114;SDS011;41988;53.020;6.576;2023-04-03T02:21:50;3.50;;;1.60;;
56114;SDS011;41988;53.020;6.576;2023-04-03T02:24:35;3.10;;;1.47;;
56114;SDS011;41988;53.020;6.576;2023-04-03T02:27:19;4.47;;;1.60;;
56114;SDS011;41988;53.020;6.576;2023-04-03T02:30:04;4.13;;;1.93;;
56114;SDS011;41988;53.020;6.576;2023-04-03T02:32:49;6.23;;;2.17;;
56114;SDS011;41988;53.020;6.576;2023-04-03T02:35:34;4.33;;;1.73;;
56114;SDS011;41988;53.020;6.576;2023-04-03T02:38:20;6.53;;;2.03;;
56114;SDS011;41988;53.020;6.576;2023-04-03T02:41:06;5.43;;;1.77;;
56114;SDS011;41988;53.020;6.576;2023-04-03T02:43:51;4.47;;;2.07;;
56114;SDS011;41988;53.020;6.576;2023-04-03T02:46:36;6.37;;;1.77;;
56114;SDS011;41988;53.020;6.576;2023-04-03T02:49:20;6.77;;;1.87;;
56114;SDS011;41988;53.020;6.576;2023-04-03T02:52:05;4.43;;;1.50;;
56114;SDS011;41988;53.020;6.576;2023-04-03T02:54:49;6.17;;;2.97;;
56114;SDS011;41988;53.020;6.576;2023-04-03T02:57:34;4.67;;;2.10;;
56114;SDS011;41988;53.020;6.576;2023-04-03T03:00:18;3.43;;;1.77;;
56114;SDS011;41988;53.020;6.576;2023-04-03T03:03:04;4.07;;;1.47;;
56114;SDS011;41988;53.020;6.576;2023-04-03T03:05:48;5.70;;;1.80;;
56114;SDS011;41988;53.020;6.576;2023-04-03T03:08:33;4.07;;;1.80;;
56114;SDS011;41988;53.020;6.576;2023-04-03T03:11:18;4.37;;;1.60;;
56114;SDS011;41988;53.020;6.576;2023-04-03T03:14:03;5.00;;;1.77;;
56114;SDS011;41988;53.020;6.576;2023-04-03T03:16:48;4.53;;;1.67;;
56114;SDS011;41988;53.020;6.576;2023-04-03T03:19:33;5.63;;;2.10;;
56114;SDS011;41988;53.020;6.576;2023-04-03T03:22:18;7.17;;;1.93;;
56114;SDS011;41988;53.020;6.576;2023-04-03T03:25:03;4.73;;;1.83;;
56114;SDS011;41988;53.020;6.576;2023-04-03T03:27:47;5.73;;;1.67;;
56114;SDS011;41988;53.020;6.576;2023-04-03T03:30:32;4.43;;;1.73;;
56114;SDS011;41988;53.020;6.576;2023-04-03T03:33:17;7.90;;;2.10;;
56114;SDS011;41988;53.020;6.576;2023-04-03T03:36:02;5.33;;;2.07;;
56114;SDS011;41988;53.020;6.576;2023-04-03T03:38:47;13.47;;;3.60;;
56114;SDS011;41988;53.020;6.576;2023-04-03T03:41:31;5.57;;;1.70;;
56114;SDS011;41988;53.020;6.576;2023-04-03T03:44:16;3.53;;;1.73;;
56114;SDS011;41988;53.020;6.576;2023-04-03T03:47:01;6.50;;;2.00;;
56114;SDS011;41988;53.020;6.576;2023-04-03T03:49:46;2.97;;;1.67;;
56114;SDS011;41988;53.020;6.576;2023-04-03T03:52:31;7.87;;;2.17;;
56114;SDS011;41988;53.020;6.576;2023-04-03T03:55:16;4.60;;;1.90;;
56114;SDS011;41988;53.020;6.576;2023-04-03T03:58:01;5.30;;;2.17;;
56114;SDS011;41988;53.020;6.576;2023-04-03T04:00:45;6.47;;;2.20;;
56114;SDS011;41988;53.020;6.576;2023-04-03T04:03:30;6.37;;;2.13;;
56114;SDS011;41988;53.020;6.576;2023-04-03T04:06:14;6.77;;;2.83;;
56114;SDS011;41988;53.020;6.576;2023-04-03T04:08:59;4.70;;;2.00;;
56114;SDS011;41988;53.020;6.576;2023-04-03T04:11:44;7.47;;;2.47;;
56114;SDS011;41988;53.020;6.576;2023-04-03T04:14:29;6.23;;;2.20;;
56114;SDS011;41988;53.020;6.576;2023-04-03T04:17:13;4.57;;;2.40;;
56114;SDS011;41988;53.020;6.576;2023-04-03T04:19:58;4.43;;;2.00;;
56114;SDS011;41988;53.020;6.576;2023-04-03T04:22:43;7.13;;;2.20;;
56114;SDS011;41988;53.020;6.576;2023-04-03T04:25:27;5.47;;;2.27;;
56114;SDS011;41988;53.020;6.576;2023-04-03T04:28:12;8.23;;;2.40;;
56114;SDS011;41988;53.020;6.576;2023-04-03T04:30:56;8.13;;;2.43;;
56114;SDS011;41988;53.020;6.576;2023-04-03T04:33:41;7.67;;;2.80;;
56114;SDS011;41988;53.020;6.576;2023-04-03T04:36:25;6.37;;;2.40;;
56114;SDS011;41988;53.020;6.576;2023-04-03T04:39:10;7.17;;;4.60;;
56114;SDS011;41988;53.020;6.576;2023-04-03T04:41:54;15.00;;;3.53;;
56114;SDS011;41988;53.020;6.576;2023-04-03T04:44:39;7.50;;;3.23;;
56114;SDS011;41988;53.020;6.576;2023-04-03T04:47:24;9.23;;;2.60;;
56114;SDS011;41988;53.020;6.576;2023-04-03T04:50:09;5.80;;;2.47;;
56114;SDS011;41988;53.020;6.576;2023-04-03T04:52:54;8.57;;;2.70;;
56114;SDS011;41988;53.020;6.576;2023-04-03T04:55:38;8.83;;;2.50;;
56114;SDS011;41988;53.020;6.576;2023-04-03T04:58:23;7.90;;;3.10;;
56114;SDS011;41988;53.020;6.576;2023-04-03T05:01:09;6.20;;;2.30;;
56114;SDS011;41988;53.020;6.576;2023-04-03T05:03:54;3.97;;;2.23;;
56114;SDS011;41988;53.020;6.576;2023-04-03T05:06:39;6.20;;;2.67;;
56114;SDS011;41988;53.020;6.576;2023-04-03T05:09:24;8.70;;;2.83;;
56114;SDS011;41988;53.020;6.576;2023-04-03T05:12:09;7.17;;;2.57;;
56114;SDS011;41988;53.020;6.576;2023-04-03T05:14:54;6.10;;;2.70;;
56114;SDS011;41988;53.020;6.576;2023-04-03T05:17:39;8.63;;;2.80;;
56114;SDS011;41988;53.020;6.576;2023-04-03T05:20:23;9.20;;;2.90;;
56114;SDS011;41988;53.020;6.576;2023-04-03T05:23:09;5.60;;;2.97;;
56114;SDS011;41988;53.020;6.576;2023-04-03T05:25:54;8.20;;;2.80;;
56114;SDS011;41988;53.020;6.576;2023-04-03T05:28:39;5.43;;;2.70;;
56114;SDS011;41988;53.020;6.576;2023-04-03T05:31:24;6.80;;;2.57;;
56114;SDS011;41988;53.020;6.576;2023-04-03T05:34:08;7.57;;;2.70;;
56114;SDS011;41988;53.020;6.576;2023-04-03T05:36:53;7.30;;;2.80;;
56114;SDS011;41988;53.020;6.576;2023-04-03T05:39:38;5.60;;;2.90;;
56114;SDS011;41988;53.020;6.576;2023-04-03T05:42:24;6.07;;;2.57;;
56114;SDS011;41988;53.020;6.576;2023-04-03T05:45:09;6.47;;;3.20;;
56114;SDS011;41988;53.020;6.576;2023-04-03T05:47:54;7.67;;;2.90;;
56114;SDS011;41988;53.020;6.576;2023-04-03T05:50:38;7.50;;;3.57;;
56114;SDS011;41988;53.020;6.576;2023-04-03T05:53:27;5.70;;;2.63;;
56114;SDS011;41988;53.020;6.576;2023-04-03T05:56:12;10.13;;;3.63;;
56114;SDS011;41988;53.020;6.576;2023-04-03T05:58:57;10.10;;;3.67;;
56114;SDS011;41988;53.020;6.576;2023-04-03T06:01:41;4.90;;;2.90;;
56114;SDS011;41988;53.020;6.576;2023-04-03T06:04:26;10.73;;;2.60;;
56114;SDS011;41988;53.020;6.576;2023-04-03T06:07:11;8.07;;;3.10;;
56114;SDS011;41988;53.020;6.576;2023-04-03T06:09:57;7.90;;;2.70;;
56114;SDS011;41988;53.020;6.576;2023-04-03T06:12:42;8.33;;;4.70;;
56114;SDS011;41988;53.020;6.576;2023-04-03T06:15:26;8.83;;;3.27;;
56114;SDS011;41988;53.020;6.576;2023-04-03T06:18:12;10.13;;;4.20;;
56114;SDS011;41988;53.020;6.576;2023-04-03T06:20:56;12.97;;;4.87;;
56114;SDS011;41988;53.020;6.576;2023-04-03T06:23:41;8.27;;;3.60;;
56114;SDS011;41988;53.020;6.576;2023-04-03T06:26:26;14.97;;;5.63;;
56114;SDS011;41988;53.020;6.576;2023-04-03T06:29:11;13.37;;;5.60;;
56114;SDS011;41988;53.020;6.576;2023-04-03T06:31:56;10.00;;;3.67;;
56114;SDS011;41988;53.020;6.576;2023-04-03T06:34:40;10.13;;;3.47;;
56114;SDS011;41988;53.020;6.576;2023-04-03T06:37:25;6.43;;;2.57;;
56114;SDS011;41988;53.020;6.576;2023-04-03T06:40:17;11.17;;;2.80;;
56114;SDS011;41988;53.020;6.576;2023-04-03T06:43:02;5.87;;;2.57;;
56114;SDS011;41988;53.020;6.576;2023-04-03T06:45:47;6.13;;;2.70;;
56114;SDS011;41988;53.020;6.576;2023-04-03T06:48:31;11.27;;;2.93;;
56114;SDS011;41988;53.020;6.576;2023-04-03T06:51:17;5.87;;;2.73;;
56114;SDS011;41988;53.020;6.576;2023-04-03T06:54:09;7.43;;;2.65;;
56114;SDS011;41988;53.020;6.576;2023-04-03T06:56:54;7.07;;;2.40;;
56114;SDS011;41988;53.020;6.576;2023-04-03T06:59:39;8.40;;;2.47;;
56114;SDS011;41988;53.020;6.576;2023-04-03T07:02:24;10.30;;;3.50;;
56114;SDS011;41988;53.020;6.576;2023-04-03T07:05:08;5.53;;;2.00;;
56114;SDS011;41988;53.020;6.576;2023-04-03T07:07:54;7.60;;;2.77;;
56114;SDS011;41988;53.020;6.576;2023-04-03T07:10:39;5.40;;;2.07;;
56114;SDS011;41988;53.020;6.576;2023-04-03T07:13:23;6.03;;;2.43;;
56114;SDS011;41988;53.020;6.576;2023-04-03T07:16:08;6.83;;;2.40;;
56114;SDS011;41988;53.020;6.576;2023-04-03T07:18:53;5.17;;;2.20;;
56114;SDS011;41988;53.020;6.576;2023-04-03T07:21:38;8.30;;;1.90;;
56114;SDS011;41988;53.020;6.576;2023-04-03T07:24:22;7.35;;;2.75;;
56114;SDS011;41988;53.020;6.576;2023-04-03T07:27:07;5.90;;;2.28;;
56114;SDS011;41988;53.020;6.576;2023-04-03T07:29:52;8.65;;;2.25;;
56114;SDS011;41988;53.020;6.576;2023-04-03T07:32:37;5.00;;;1.92;;
56114;SDS011;41988;53.020;6.576;2023-04-03T07:35:21;8.05;;;2.20;;
56114;SDS011;41988;53.020;6.576;2023-04-03T07:38:06;4.93;;;2.00;;
56114;SDS011;41988;53.020;6.576;2023-04-03T07:40:50;6.57;;;2.38;;
56114;SDS011;41988;53.020;6.576;2023-04-03T07:43:36;8.40;;;2.20;;
56114;SDS011;41988;53.020;6.576;2023-04-03T07:46:20;7.43;;;2.10;;
56114;SDS011;41988;53.020;6.576;2023-04-03T07:49:05;7.47;;;2.88;;
56114;SDS011;41988;53.020;6.576;2023-04-03T07:51:50;7.88;;;3.65;;
56114;SDS011;41988;53.020;6.576;2023-04-03T07:54:35;11.15;;;3.22;;
56114;SDS011;41988;53.020;6.576;2023-04-03T07:57:19;7.65;;;2.25;;
56114;SDS011;41988;53.020;6.576;2023-04-03T08:00:04;5.35;;;1.80;;
56114;SDS011;41988;53.020;6.576;2023-04-03T08:02:49;8.68;;;2.25;;
56114;SDS011;41988;53.020;6.576;2023-04-03T08:05:39;6.32;;;1.88;;
56114;SDS011;41988;53.020;6.576;2023-04-03T08:08:24;3.88;;;1.90;;
56114;SDS011;41988;53.020;6.576;2023-04-03T08:11:10;8.15;;;2.85;;
56114;SDS011;41988;53.020;6.576;2023-04-03T08:13:55;8.48;;;1.92;;
56114;SDS011;41988;53.020;6.576;2023-04-03T08:16:39;5.65;;;1.65;;
56114;SDS011;41988;53.020;6.576;2023-04-03T08:19:24;6.20;;;1.88;;
56114;SDS011;41988;53.020;6.576;2023-04-03T08:22:08;5.60;;;1.70;;
56114;SDS011;41988;53.020;6.576;2023-04-03T08:24:53;11.52;;;2.10;;
56114;SDS011;41988;53.020;6.576;2023-04-03T08:27:38;5.25;;;1.60;;
56114;SDS011;41988;53.020;6.576;2023-04-03T08:30:23;6.03;;;2.38;;
56114;SDS011;41988;53.020;6.576;2023-04-03T08:33:08;4.03;;;1.55;;
56114;SDS011;41988;53.020;6.576;2023-04-03T08:35:53;6.30;;;1.65;;
56114;SDS011;41988;53.020;6.576;2023-04-03T08:38:37;4.35;;;1.30;;
56114;SDS011;41988;53.020;6.576;2023-04-03T08:41:27;4.57;;;1.60;;
56114;SDS011;41988;53.020;6.576;2023-04-03T08:47:02;3.97;;;1.20;;
56114;SDS011;41988;53.020;6.576;2023-04-03T08:49:49;4.93;;;1.33;;
56114;SDS011;41988;53.020;6.576;2023-04-03T08:52:41;6.85;;;1.67;;
56114;SDS011;41988;53.020;6.576;2023-04-03T08:55:31;5.13;;;1.60;;
56114;SDS011;41988;53.020;6.576;2023-04-03T08:58:30;2.90;;;1.20;;
56114;SDS011;41988;53.020;6.576;2023-04-03T09:01:26;3.83;;;1.50;;
56114;SDS011;41988;53.020;6.576;2023-04-03T09:04:13;3.83;;;1.58;;
56114;SDS011;41988;53.020;6.576;2023-04-03T09:07:02;5.88;;;1.38;;
56114;SDS011;41988;53.020;6.576;2023-04-03T09:09:48;4.65;;;1.67;;
56114;SDS011;41988;53.020;6.576;2023-04-03T09:12:38;4.93;;;1.20;;
56114;SDS011;41988;53.020;6.576;2023-04-03T09:15:24;3.20;;;1.27;;
56114;SDS011;41988;53.020;6.576;2023-04-03T09:24:00;3.53;;;1.20;;
56114;SDS011;41988;53.020;6.576;2023-04-03T09:26:47;2.50;;;1.00;;
56114;SDS011;41988;53.020;6.576;2023-04-03T09:29:43;2.55;;;0.80;;
56114;SDS011;41988;53.020;6.576;2023-04-03T09:32:35;6.53;;;1.13;;
56114;SDS011;41988;53.020;6.576;2023-04-03T09:35:21;4.28;;;1.13;;
56114;SDS011;41988;53.020;6.576;2023-04-03T09:41:05;3.90;;;1.20;;
56114;SDS011;41988;53.020;6.576;2023-04-03T09:43:52;4.03;;;1.27;;
56114;SDS011;41988;53.020;6.576;2023-04-03T09:46:37;2.85;;;1.00;;
56114;SDS011;41988;53.020;6.576;2023-04-03T09:49:23;3.28;;;1.10;;
56114;SDS011;41988;53.020;6.576;2023-04-03T09:52:18;3.30;;;1.13;;
56114;SDS011;41988;53.020;6.576;2023-04-03T09:55:07;4.78;;;1.00;;
56114;SDS011;41988;53.020;6.576;2023-04-03T09:57:57;3.88;;;1.35;;
56114;SDS011;41988;53.020;6.576;2023-04-03T10:00:42;2.95;;;1.00;;
56114;SDS011;41988;53.020;6.576;2023-04-03T10:03:29;2.30;;;0.98;;
56114;SDS011;41988;53.020;6.576;2023-04-03T10:06:21;4.43;;;1.02;;
56114;SDS011;41988;53.020;6.576;2023-04-03T10:09:17;4.15;;;1.20;;
56114;SDS011;41988;53.020;6.576;2023-04-03T10:17:50;3.70;;;1.15;;
56114;SDS011;41988;53.020;6.576;2023-04-03T10:20:40;4.38;;;1.50;;
56114;SDS011;41988;53.020;6.576;2023-04-03T10:23:30;3.08;;;1.10;;
56114;SDS011;41988;53.020;6.576;2023-04-03T10:29:36;3.08;;;1.20;;
56114;SDS011;41988;53.020;6.576;2023-04-03T10:35:10;5.97;;;1.33;;
56114;SDS011;41988;53.020;6.576;2023-04-03T10:38:19;4.18;;;1.15;;
56114;SDS011;41988;53.020;6.576;2023-04-03T10:47:11;3.33;;;1.02;;
56114;SDS011;41988;53.020;6.576;2023-04-03T10:50:08;3.45;;;0.77;;
56114;SDS011;41988;53.020;6.576;2023-04-03T10:58:43;6.03;;;1.15;;
56114;SDS011;41988;53.020;6.576;2023-04-03T11:01:33;4.00;;;1.10;;
56114;SDS011;41988;53.020;6.576;2023-04-03T11:04:21;3.10;;;1.10;;
56114;SDS011;41988;53.020;6.576;2023-04-03T11:07:11;2.72;;;1.10;;
56114;SDS011;41988;53.020;6.576;2023-04-03T11:10:09;2.15;;;1.08;;
56114;SDS011;41988;53.020;6.576;2023-04-03T11:13:01;2.08;;;1.00;;
56114;SDS011;41988;53.020;6.576;2023-04-03T11:15:51;4.10;;;1.13;;
56114;SDS011;41988;53.020;6.576;2023-04-03T11:18:39;2.88;;;1.00;;
56114;SDS011;41988;53.020;6.576;2023-04-03T11:21:29;2.25;;;1.13;;
56114;SDS011;41988;53.020;6.576;2023-04-03T11:24:17;2.13;;;1.00;;
56114;SDS011;41988;53.020;6.576;2023-04-03T11:27:05;3.22;;;1.23;;
56114;SDS011;41988;53.020;6.576;2023-04-03T11:29:50;5.10;;;1.63;;
56114;SDS011;41988;53.020;6.576;2023-04-03T11:32:42;2.72;;;0.95;;
56114;SDS011;41988;53.020;6.576;2023-04-03T11:35:31;2.22;;;1.02;;
56114;SDS011;41988;53.020;6.576;2023-04-03T11:38:21;3.67;;;1.15;;
56114;SDS011;41988;53.020;6.576;2023-04-03T11:41:07;3.10;;;0.98;;
56114;SDS011;41988;53.020;6.576;2023-04-03T11:44:00;3.72;;;1.10;;
56114;SDS011;41988;53.020;6.576;2023-04-03T11:46:49;2.13;;;1.17;;
56114;SDS011;41988;53.020;6.576;2023-04-03T11:58:15;3.30;;;1.13;;
56114;SDS011;41988;53.020;6.576;2023-04-03T12:15:18;3.38;;;1.45;;
56114;SDS011;41988;53.020;6.576;2023-04-03T12:21:06;5.10;;;1.40;;
56114;SDS011;41988;53.020;6.576;2023-04-03T12:23:59;4.30;;;1.20;;
56114;SDS011;41988;53.020;6.576;2023-04-03T12:27:09;3.25;;;1.20;;
56114;SDS011;41988;53.020;6.576;2023-04-03T12:41:42;6.03;;;1.70;;
56114;SDS011;41988;53.020;6.576;2023-04-03T12:44:35;2.95;;;1.40;;
56114;SDS011;41988;53.020;6.576;2023-04-03T12:47:31;2.63;;;1.13;;
56114;SDS011;41988;53.020;6.576;2023-04-03T12:50:21;2.63;;;1.20;;
56114;SDS011;41988;53.020;6.576;2023-04-03T12:53:41;5.53;;;1.80;;
56114;SDS011;41988;53.020;6.576;2023-04-03T12:56:25;3.47;;;1.20;;
56114;SDS011;41988;53.020;6.576;2023-04-03T12:59:15;4.97;;;1.60;;
56114;SDS011;41988;53.020;6.576;2023-04-03T13:02:01;6.05;;;3.22;;
56114;SDS011;41988;53.020;6.576;2023-04-03T13:04:46;3.08;;;1.23;;
56114;SDS011;41988;53.020;6.576;2023-04-03T13:07:31;5.35;;;2.13;;
56114;SDS011;41988;53.020;6.576;2023-04-03T13:10:17;2.83;;;1.25;;
56114;SDS011;41988;53.020;6.576;2023-04-03T13:13:09;3.15;;;1.10;;
56114;SDS011;41988;53.020;6.576;2023-04-03T13:15:54;3.95;;;1.58;;
56114;SDS011;41988;53.020;6.576;2023-04-03T13:18:39;3.72;;;1.30;;
56114;SDS011;41988;53.020;6.576;2023-04-03T13:21:26;3.40;;;1.13;;
56114;SDS011;41988;53.020;6.576;2023-04-03T13:24:12;2.90;;;1.20;;
56114;SDS011;41988;53.020;6.576;2023-04-03T13:26:57;3.58;;;1.52;;
56114;SDS011;41988;53.020;6.576;2023-04-03T13:29:41;3.47;;;1.30;;
56114;SDS011;41988;53.020;6.576;2023-04-03T13:32:26;2.65;;;1.20;;
56114;SDS011;41988;53.020;6.576;2023-04-03T13:41:05;3.92;;;1.42;;
56114;SDS011;41988;53.020;6.576;2023-04-03T13:43:51;3.55;;;1.38;;
56114;SDS011;41988;53.020;6.576;2023-04-03T13:46:35;4.05;;;1.30;;
56114;SDS011;41988;53.020;6.576;2023-04-03T13:49:21;2.67;;;1.27;;
56114;SDS011;41988;53.020;6.576;2023-04-03T13:55:15;5.45;;;1.20;;
56114;SDS011;41988;53.020;6.576;2023-04-03T13:58:20;3.55;;;1.60;;
56114;SDS011;41988;53.020;6.576;2023-04-03T14:01:17;2.85;;;1.30;;
56114;SDS011;41988;53.020;6.576;2023-04-03T14:04:09;2.65;;;1.20;;
56114;SDS011;41988;53.020;6.576;2023-04-03T14:06:55;3.85;;;1.40;;
56114;SDS011;41988;53.020;6.576;2023-04-03T14:09:40;4.50;;;1.88;;
56114;SDS011;41988;53.020;6.576;2023-04-03T14:12:26;4.22;;;1.60;;
56114;SDS011;41988;53.020;6.576;2023-04-03T14:15:16;2.92;;;1.20;;
56114;SDS011;41988;53.020;6.576;2023-04-03T14:18:01;2.83;;;1.10;;
56114;SDS011;41988;53.020;6.576;2023-04-03T14:20:46;3.75;;;1.40;;
56114;SDS011;41988;53.020;6.576;2023-04-03T14:23:31;4.93;;;1.40;;
56114;SDS011;41988;53.020;6.576;2023-04-03T14:26:17;2.10;;;1.17;;
56114;SDS011;41988;53.020;6.576;2023-04-03T14:29:02;2.70;;;1.30;;
56114;SDS011;41988;53.020;6.576;2023-04-03T14:31:47;2.63;;;1.23;;
56114;SDS011;41988;53.020;6.576;2023-04-03T14:34:32;3.28;;;1.20;;
56114;SDS011;41988;53.020;6.576;2023-04-03T14:37:18;2.70;;;1.17;;
56114;SDS011;41988;53.020;6.576;2023-04-03T14:40:04;4.85;;;1.23;;
56114;SDS011;41988;53.020;6.576;2023-04-03T14:42:49;2.70;;;1.30;;
56114;SDS011;41988;53.020;6.576;2023-04-03T14:45:34;3.42;;;1.30;;
56114;SDS011;41988;53.020;6.576;2023-04-03T14:48:20;2.70;;;1.00;;
56114;SDS011;41988;53.020;6.576;2023-04-03T14:51:05;5.43;;;1.77;;
56114;SDS011;41988;53.020;6.576;2023-04-03T14:53:49;4.00;;;1.42;;
56114;SDS011;41988;53.020;6.576;2023-04-03T14:56:34;4.82;;;1.30;;
56114;SDS011;41988;53.020;6.576;2023-04-03T14:59:19;2.30;;;1.05;;
56114;SDS011;41988;53.020;6.576;2023-04-03T15:02:48;2.50;;;1.33;;
56114;SDS011;41988;53.020;6.576;2023-04-03T15:05:13;2.45;;;0.95;;
56114;SDS011;41988;53.020;6.576;2023-04-03T15:07:58;2.50;;;1.10;;
56114;SDS011;41988;53.020;6.576;2023-04-03T15:10:44;3.58;;;1.10;;
56114;SDS011;41988;53.020;6.576;2023-04-03T15:13:28;5.43;;;1.23;;
56114;SDS011;41988;53.020;6.576;2023-04-03T15:16:16;1.92;;;0.98;;
56114;SDS011;41988;53.020;6.576;2023-04-03T15:19:02;5.35;;;0.95;;
56114;SDS011;41988;53.020;6.576;2023-04-03T15:21:46;3.92;;;1.27;;
56114;SDS011;41988;53.020;6.576;2023-04-03T15:24:31;1.90;;;1.00;;
56114;SDS011;41988;53.020;6.576;2023-04-03T15:27:15;2.70;;;1.10;;
56114;SDS011;41988;53.020;6.576;2023-04-03T15:30:00;1.95;;;0.85;;
56114;SDS011;41988;53.020;6.576;2023-04-03T15:32:45;4.85;;;1.17;;
56114;SDS011;41988;53.020;6.576;2023-04-03T15:35:30;2.67;;;1.08;;
56114;SDS011;41988;53.020;6.576;2023-04-03T15:38:14;2.58;;;1.05;;
56114;SDS011;41988;53.020;6.576;2023-04-03T15:40:59;2.63;;;1.20;;
56114;SDS011;41988;53.020;6.576;2023-04-03T15:43:44;4.47;;;1.10;;
56114;SDS011;41988;53.020;6.576;2023-04-03T15:46:28;2.45;;;0.93;;
56114;SDS011;41988;53.020;6.576;2023-04-03T15:49:13;2.97;;;1.10;;
56114;SDS011;41988;53.020;6.576;2023-04-03T15:51:58;3.08;;;1.20;;
56114;SDS011;41988;53.020;6.576;2023-04-03T15:54:43;3.35;;;1.58;;
56114;SDS011;41988;53.020;6.576;2023-04-03T15:57:27;3.72;;;1.65;;
56114;SDS011;41988;53.020;6.576;2023-04-03T16:00:12;5.40;;;1.38;;
56114;SDS011;41988;53.020;6.576;2023-04-03T16:02:59;2.30;;;1.35;;
56114;SDS011;41988;53.020;6.576;2023-04-03T16:05:45;4.68;;;1.65;;
56114;SDS011;41988;53.020;6.576;2023-04-03T16:08:30;3.13;;;1.55;;
56114;SDS011;41988;53.020;6.576;2023-04-03T16:11:15;3.08;;;1.35;;
56114;SDS011;41988;53.020;6.576;2023-04-03T16:13:59;4.05;;;1.10;;
56114;SDS011;41988;53.020;6.576;2023-04-03T16:16:44;3.13;;;1.50;;
56114;SDS011;41988;53.020;6.576;2023-04-03T16:19:29;4.78;;;1.48;;
56114;SDS011;41988;53.020;6.576;2023-04-03T16:22:13;2.70;;;1.40;;
56114;SDS011;41988;53.020;6.576;2023-04-03T16:24:58;4.25;;;1.42;;
56114;SDS011;41988;53.020;6.576;2023-04-03T16:27:43;3.15;;;1.20;;
56114;SDS011;41988;53.020;6.576;2023-04-03T16:30:27;3.00;;;1.52;;
56114;SDS011;41988;53.020;6.576;2023-04-03T16:33:12;3.65;;;1.02;;
56114;SDS011;41988;53.020;6.576;2023-04-03T16:35:57;4.78;;;1.52;;
56114;SDS011;41988;53.020;6.576;2023-04-03T16:38:42;2.63;;;1.35;;
56114;SDS011;41988;53.020;6.576;2023-04-03T16:41:26;2.45;;;1.10;;
56114;SDS011;41988;53.020;6.576;2023-04-03T16:44:11;1.80;;;0.93;;
56114;SDS011;41988;53.020;6.576;2023-04-03T16:46:56;3.47;;;1.10;;
56114;SDS011;41988;53.020;6.576;2023-04-03T16:49:41;2.88;;;1.08;;
56114;SDS011;41988;53.020;6.576;2023-04-03T16:52:25;2.92;;;1.20;;
56114;SDS011;41988;53.020;6.576;2023-04-03T16:55:10;1.80;;;1.08;;
56114;SDS011;41988;53.020;6.576;2023-04-03T16:57:54;3.10;;;1.45;;
56114;SDS011;41988;53.020;6.576;2023-04-03T17:00:39;4.07;;;1.13;;
56114;SDS011;41988;53.020;6.576;2023-04-03T17:03:23;3.10;;;1.20;;
56114;SDS011;41988;53.020;6.576;2023-04-03T17:06:09;2.17;;;1.00;;
56114;SDS011;41988;53.020;6.576;2023-04-03T17:08:59;2.63;;;1.20;;
56114;SDS011;41988;53.020;6.576;2023-04-03T17:11:43;2.97;;;1.20;;
56114;SDS011;41988;53.020;6.576;2023-04-03T17:14:29;3.80;;;2.10;;
56114;SDS011;41988;53.020;6.576;2023-04-03T17:17:14;6.40;;;2.83;;
56114;SDS011;41988;53.020;6.576;2023-04-03T17:19:59;4.68;;;1.73;;
56114;SDS011;41988;53.020;6.576;2023-04-03T17:22:44;3.17;;;1.15;;
56114;SDS011;41988;53.020;6.576;2023-04-03T17:25:29;2.78;;;1.00;;
56114;SDS011;41988;53.020;6.576;2023-04-03T17:28:13;4.13;;;1.20;;
56114;SDS011;41988;53.020;6.576;2023-04-03T17:30:59;3.67;;;1.17;;
56114;SDS011;41988;53.020;6.576;2023-04-03T17:33:44;3.45;;;1.50;;
56114;SDS011;41988;53.020;6.576;2023-04-03T17:36:32;3.65;;;1.42;;
56114;SDS011;41988;53.020;6.576;2023-04-03T17:39:17;4.22;;;1.50;;
56114;SDS011;41988;53.020;6.576;2023-04-03T17:42:01;4.07;;;1.30;;
56114;SDS011;41988;53.020;6.576;2023-04-03T17:44:46;2.25;;;1.20;;
56114;SDS011;41988;53.020;6.576;2023-04-03T17:47:31;4.53;;;1.23;;
56114;SDS011;41988;53.020;6.576;2023-04-03T17:50:15;2.05;;;1.10;;
56114;SDS011;41988;53.020;6.576;2023-04-03T17:53:00;5.60;;;1.30;;
56114;SDS011;41988;53.020;6.576;2023-04-03T17:55:44;2.78;;;1.15;;
56114;SDS011;41988;53.020;6.576;2023-04-03T17:58:29;2.65;;;1.02;;
56114;SDS011;41988;53.020;6.576;2023-04-03T18:03:59;4.28;;;1.63;;
56114;SDS011;41988;53.020;6.576;2023-04-03T18:06:47;2.60;;;1.30;;
56114;SDS011;41988;53.020;6.576;2023-04-03T18:09:33;3.10;;;1.00;;
56114;SDS011;41988;53.020;6.576;2023-04-03T18:12:17;4.15;;;1.20;;
56114;SDS011;41988;53.020;6.576;2023-04-03T18:15:02;5.57;;;1.10;;